createdAt,value
2019-02-07T02:09:39.445Z,33.41
2019-02-07T02:10:39.438Z,33.31
2019-02-07T02:12:39.430Z,33.52
2019-02-07T02:13:39.426Z,33.82
2019-02-07T02:14:39.423Z,33.31
2019-02-07T02:15:39.427Z,33.92
2019-02-07T02:16:39.420Z,33.62
2019-02-07T02:17:39.422Z,33.41
2019-02-07T02:18:39.417Z,33.72
2019-02-07T02:19:39.417Z,33.31
2019-02-07T02:20:39.413Z,33.41
2019-02-07T02:21:39.403Z,33.41
2019-02-07T02:22:39.401Z,33.62
2019-02-07T02:23:39.401Z,33.21
2019-02-07T02:24:39.390Z,33.52
2019-02-07T02:25:39.388Z,33.62
2019-02-07T02:26:39.385Z,33.62
2019-02-07T02:27:39.386Z,33.52
2019-02-07T02:28:39.371Z,33.72
2019-02-07T02:29:39.365Z,33.70
2019-02-07T02:30:39.366Z,33.62
2019-02-07T02:31:39.364Z,33.41
2019-02-07T02:32:39.352Z,33.41
2019-02-07T02:33:39.345Z,33.41
2019-02-07T02:34:39.346Z,33.62
2019-02-07T02:35:39.420Z,33.31
2019-02-07T02:36:39.337Z,33.31
2019-02-07T02:37:39.337Z,33.52
2019-02-07T02:38:39.434Z,33.72
2019-02-07T02:39:39.432Z,33.21
2019-02-07T02:40:39.318Z,32.91
2019-02-07T02:41:39.311Z,33.31
2019-02-07T02:43:08.017Z,33.11
2019-02-07T02:44:07.895Z,33.21
2019-02-07T02:45:07.872Z,32.91
2019-02-07T02:46:07.850Z,33.11
2019-02-07T02:47:07.829Z,33.11
2019-02-07T02:48:07.810Z,33.01
2019-02-07T02:49:07.790Z,33.31
2019-02-07T02:50:07.766Z,32.70
2019-02-07T02:51:07.746Z,32.91
2019-02-07T02:52:07.722Z,32.70
2019-02-07T02:53:07.702Z,32.91
2019-02-07T02:54:07.682Z,32.70
2019-02-07T02:55:07.675Z,32.89
2019-02-07T02:56:07.651Z,32.91
2019-02-07T02:57:07.633Z,32.69
2019-02-07T02:58:07.622Z,32.91
2019-02-07T02:59:07.602Z,32.89
2019-02-07T03:00:07.586Z,32.79
2019-02-07T03:01:07.645Z,33.11
2019-02-07T03:02:07.652Z,32.81
2019-02-07T03:03:07.539Z,33.41
2019-02-07T03:04:07.628Z,32.81
2019-02-07T03:05:07.511Z,33.09
2019-02-07T03:06:07.498Z,33.09
2019-02-07T03:07:07.490Z,33.00
2019-02-07T03:08:07.470Z,33.09
2019-02-07T03:09:07.453Z,32.79
2019-02-07T03:10:07.434Z,32.79
2019-02-07T03:11:07.416Z,33.09
2019-02-07T03:12:07.395Z,33.00
2019-02-07T03:13:07.381Z,32.79
2019-02-07T03:14:07.364Z,33.09
2019-02-07T03:15:07.368Z,32.79
2019-02-07T03:16:07.328Z,33.00
2019-02-07T03:17:07.314Z,33.00
2019-02-07T03:18:07.298Z,32.69
2019-02-07T03:19:07.277Z,32.69
2019-02-07T03:20:07.263Z,32.69
2019-02-07T03:21:07.243Z,32.69
2019-02-07T03:22:07.229Z,33.00
2019-02-07T03:23:07.211Z,32.69
2019-02-07T03:24:07.193Z,32.59
2019-02-07T03:25:07.177Z,32.49
2019-02-07T03:26:07.158Z,32.49
2019-02-07T03:27:07.140Z,32.59
2019-02-07T03:28:07.128Z,32.79
2019-02-07T03:29:07.111Z,32.49
2019-02-07T03:30:07.098Z,32.28
2019-02-07T03:31:07.085Z,32.39
2019-02-07T03:32:07.070Z,32.69
2019-02-07T03:33:07.047Z,32.89
2019-02-07T03:34:07.026Z,32.69
2019-02-07T03:35:07.011Z,32.89
2019-02-07T03:36:06.994Z,32.89
2019-02-07T03:37:06.982Z,32.89
2019-02-07T03:38:06.964Z,32.79
2019-02-07T03:39:07.198Z,32.89
2019-02-07T03:40:06.927Z,32.87
2019-02-07T03:41:06.911Z,32.89
2019-02-07T03:42:06.894Z,32.79
2019-02-07T03:43:06.876Z,32.89
2019-02-07T03:44:06.864Z,32.87
2019-02-07T03:45:06.853Z,32.79
2019-02-07T03:46:06.834Z,33.00
2019-02-07T03:47:06.818Z,33.00
2019-02-07T03:48:06.807Z,33.09
2019-02-07T03:49:06.792Z,33.20
2019-02-07T03:50:06.893Z,32.89
2019-02-07T03:51:06.763Z,33.20
2019-02-07T03:52:06.746Z,33.09
2019-02-07T03:53:06.734Z,32.98
2019-02-07T03:54:06.719Z,33.09
2019-02-07T03:55:06.766Z,33.08
2019-02-07T03:56:06.686Z,32.89
2019-02-07T03:57:06.762Z,32.18
2019-02-07T03:58:06.651Z,33.20
2019-02-07T03:59:06.727Z,32.17
2019-02-07T04:00:06.620Z,32.87
2019-02-07T04:01:06.604Z,32.28
2019-02-07T04:02:06.586Z,32.69
2019-02-07T04:03:06.573Z,32.37
2019-02-07T04:04:06.655Z,32.47
2019-02-07T04:05:06.545Z,32.67
2019-02-07T04:06:06.621Z,32.58
2019-02-07T04:07:06.610Z,32.67
2019-02-07T04:08:06.492Z,32.98
2019-02-07T04:09:06.478Z,32.87
2019-02-07T04:10:06.554Z,33.08
2019-02-07T04:11:06.451Z,32.98
2019-02-07T04:12:06.530Z,32.98
2019-02-07T04:13:06.424Z,32.58
2019-02-07T04:14:06.503Z,32.58
2019-02-07T04:15:06.486Z,32.58
2019-02-07T04:16:14.797Z,32.58
2019-02-07T04:17:07.555Z,32.58
2019-02-07T04:18:06.432Z,32.66
2019-02-07T04:19:06.418Z,32.47
2019-02-07T04:20:06.394Z,32.56
2019-02-07T04:21:06.389Z,32.66
2019-02-07T04:22:06.367Z,32.66
2019-02-07T04:23:06.349Z,32.67
2019-02-07T04:24:06.326Z,32.66
2019-02-07T04:25:06.306Z,32.76
2019-02-07T04:26:06.192Z,32.76
2019-02-07T04:27:06.270Z,32.78
2019-02-07T04:28:06.153Z,32.76
2019-02-07T04:29:06.133Z,32.76
2019-02-07T04:30:06.114Z,32.86
2019-02-07T04:31:06.093Z,32.76
2019-02-07T04:32:06.072Z,32.76
2019-02-07T04:33:06.054Z,32.76
2019-02-07T04:34:06.025Z,32.66
2019-02-07T04:35:05.999Z,32.46
2019-02-07T04:36:05.978Z,32.86
2019-02-07T04:37:05.956Z,32.36
2019-02-07T04:38:05.933Z,32.25
2019-02-07T04:39:06.012Z,32.66
2019-02-07T04:40:05.992Z,32.15
2019-02-07T04:41:05.874Z,32.76
2019-02-07T04:42:05.936Z,32.56
2019-02-07T04:43:05.915Z,32.36
2019-02-07T04:44:05.795Z,32.56
2019-02-07T04:45:05.867Z,32.25
2019-02-07T04:46:05.839Z,32.46
2019-02-07T04:47:05.822Z,32.76
2019-02-07T04:48:05.699Z,32.64
2019-02-07T04:49:05.775Z,32.84
2019-02-07T04:50:05.754Z,32.84
2019-02-07T04:51:05.730Z,32.84
2019-02-07T04:52:05.711Z,32.55
2019-02-07T04:53:05.689Z,32.55
2019-02-07T04:54:05.664Z,32.44
2019-02-07T04:55:05.559Z,32.24
2019-02-07T04:56:05.614Z,32.64
2019-02-07T04:57:05.596Z,32.64
2019-02-07T04:58:05.572Z,32.95
2019-02-07T04:59:05.461Z,31.93
2019-02-07T05:00:05.433Z,32.55
2019-02-07T05:01:05.411Z,31.93
2019-02-07T05:02:05.495Z,31.84
2019-02-07T05:03:05.464Z,32.44
2019-02-07T05:04:05.351Z,32.04
2019-02-07T05:05:05.425Z,31.84
2019-02-07T05:06:05.399Z,31.84
2019-02-07T05:07:05.376Z,31.84
2019-02-07T05:08:05.349Z,31.84
2019-02-07T05:09:05.329Z,31.84
2019-02-07T05:10:05.309Z,31.84
2019-02-07T05:11:05.290Z,32.14
2019-02-07T05:12:05.273Z,32.04
2019-02-07T05:13:05.253Z,32.14
2019-02-07T05:14:05.184Z,31.73
2019-02-07T05:15:05.215Z,31.82
2019-02-07T05:16:05.094Z,31.72
2019-02-07T05:17:05.164Z,32.14
2019-02-07T05:18:05.141Z,31.62
2019-02-07T05:19:05.115Z,32.33
2019-02-07T05:20:05.097Z,32.02
2019-02-07T05:21:05.071Z,32.33
2019-02-07T05:22:05.050Z,32.33
2019-02-07T05:23:04.934Z,32.02
2019-02-07T05:24:05.008Z,31.82
2019-02-07T05:25:04.981Z,31.72
2019-02-07T05:26:04.993Z,31.21
2019-02-07T05:27:04.931Z,32.02
2019-02-07T05:28:04.917Z,32.22
2019-02-07T05:29:04.894Z,32.22
2019-02-07T05:30:04.874Z,31.30
2019-02-07T05:31:04.859Z,32.02
2019-02-07T05:32:04.840Z,31.01
2019-02-07T05:33:04.826Z,31.52
2019-02-07T05:34:04.805Z,31.52
2019-02-07T05:35:04.800Z,31.31
2019-02-07T05:36:04.770Z,31.40
2019-02-07T05:37:04.757Z,31.52
2019-02-07T05:38:04.729Z,31.52
2019-02-07T05:39:04.706Z,31.31
2019-02-07T05:40:04.694Z,31.72
2019-02-07T05:41:04.911Z,31.61
2019-02-07T05:42:04.635Z,31.62
2019-02-07T05:43:04.608Z,32.02
2019-02-07T05:44:04.492Z,31.92
2019-02-07T05:45:04.556Z,31.70
2019-02-07T05:46:04.535Z,31.62
2019-02-07T05:47:04.518Z,31.62
2019-02-07T05:48:04.493Z,31.52
2019-02-07T05:49:04.471Z,31.72
2019-02-07T05:50:04.451Z,31.62
2019-02-07T05:51:04.431Z,31.50
2019-02-07T05:52:04.404Z,31.72
2019-02-07T05:53:04.378Z,31.70
2019-02-07T05:54:04.357Z,31.81
2019-02-07T05:55:04.333Z,31.90
2019-02-07T05:56:04.310Z,31.81
2019-02-07T05:57:04.354Z,31.81
2019-02-07T05:58:04.256Z,31.81
2019-02-07T05:59:04.229Z,31.70
2019-02-07T06:00:04.202Z,31.70
2019-02-07T06:01:04.177Z,31.81
2019-02-07T06:02:04.152Z,31.70
2019-02-07T06:03:04.128Z,31.50
2019-02-07T06:04:04.108Z,31.50
2019-02-07T06:05:04.187Z,31.61
2019-02-07T06:06:04.058Z,31.70
2019-02-07T06:07:04.036Z,31.61
2019-02-07T06:08:04.010Z,31.61
2019-02-07T06:09:03.983Z,31.70
2019-02-07T06:10:04.061Z,31.61
2019-02-07T06:11:03.938Z,31.50
2019-02-07T06:12:03.917Z,31.50
2019-02-07T06:13:03.901Z,31.09
2019-02-07T06:14:03.866Z,31.61
2019-02-07T06:15:03.944Z,31.20
2019-02-07T06:16:03.826Z,31.50
2019-02-07T06:17:03.710Z,31.29
2019-02-07T06:18:03.780Z,31.29
2019-02-07T06:19:03.753Z,31.59
2019-02-07T06:20:03.728Z,31.29
2019-02-07T06:21:03.703Z,31.29
2019-02-07T06:22:03.641Z,31.59
2019-02-07T06:23:03.670Z,31.09
2019-02-07T06:24:03.641Z,31.39
2019-02-07T06:25:03.624Z,31.59
2019-02-07T06:26:03.589Z,31.18
2019-02-07T06:27:03.565Z,30.68
2019-02-07T06:28:03.537Z,30.58
2019-02-07T06:29:03.515Z,30.68
2019-02-07T06:30:03.491Z,31.49
2019-02-07T06:31:03.472Z,31.39
2019-02-07T06:32:03.446Z,31.39
2019-02-07T06:33:03.428Z,30.38
2019-02-07T06:34:03.403Z,30.68
2019-02-07T06:35:03.380Z,30.58
2019-02-07T06:36:03.358Z,31.39
2019-02-07T06:37:03.336Z,30.68
2019-02-07T06:38:03.311Z,30.38
2019-02-07T06:39:03.288Z,30.38
2019-02-07T06:40:03.268Z,30.38
2019-02-07T06:41:03.249Z,30.38
2019-02-07T06:42:03.325Z,30.38
2019-02-07T06:43:03.210Z,30.38
2019-02-07T06:44:03.187Z,30.56
2019-02-07T06:45:05.988Z,30.58
2019-02-07T06:46:03.141Z,30.68
2019-02-07T06:47:13.012Z,30.38
2019-02-07T06:48:04.268Z,30.38
2019-02-07T06:49:03.078Z,30.38
2019-02-07T06:50:03.059Z,30.36
2019-02-07T06:51:03.031Z,30.38
2019-02-07T06:52:03.007Z,30.26
2019-02-07T06:53:02.990Z,30.38
2019-02-07T06:54:02.977Z,30.48
2019-02-07T06:55:05.070Z,30.78
2019-02-07T06:56:02.934Z,30.48
2019-02-07T06:57:02.915Z,30.48
2019-02-07T06:58:02.888Z,30.68
2019-02-07T06:59:02.869Z,30.38
2019-02-07T07:00:02.847Z,30.38
2019-02-07T07:01:02.828Z,30.27
2019-02-07T07:02:02.805Z,30.58
2019-02-07T07:03:02.778Z,30.48
2019-02-07T07:04:02.758Z,30.38
2019-02-07T07:05:02.735Z,30.38
2019-02-07T07:06:02.710Z,30.38
2019-02-07T07:07:02.686Z,30.46
2019-02-07T07:08:02.669Z,30.56
2019-02-07T07:09:02.647Z,30.77
2019-02-07T07:10:02.630Z,30.67
2019-02-07T07:11:02.604Z,30.48
2019-02-07T07:12:02.589Z,30.58
2019-02-07T07:13:02.558Z,30.38
2019-02-07T07:14:02.537Z,30.68
2019-02-07T07:15:02.519Z,30.27
2019-02-07T07:16:02.490Z,30.67
2019-02-07T07:17:02.474Z,30.36
2019-02-07T07:18:02.449Z,30.38
2019-02-07T07:19:02.429Z,30.38
2019-02-07T07:20:02.412Z,30.38
2019-02-07T07:21:02.396Z,30.67
2019-02-07T07:22:02.380Z,30.97
2019-02-07T07:23:02.353Z,30.87
2019-02-07T07:24:02.325Z,30.88
2019-02-07T07:25:02.306Z,31.18
2019-02-07T07:26:02.289Z,30.48
2019-02-07T07:27:02.269Z,30.87
2019-02-07T07:28:02.249Z,30.88
2019-02-07T07:29:02.232Z,31.17
2019-02-07T07:30:02.214Z,30.88
2019-02-07T07:31:02.195Z,30.88
2019-02-07T07:32:02.166Z,31.17
2019-02-07T07:33:02.142Z,30.87
2019-02-07T07:34:02.119Z,30.88
2019-02-07T07:35:02.095Z,30.68
2019-02-07T07:36:02.074Z,30.48
2019-02-07T07:37:02.053Z,30.27
2019-02-07T07:38:02.027Z,30.36
2019-02-07T07:39:02.003Z,30.46
2019-02-07T07:40:01.984Z,30.56
2019-02-07T07:41:01.961Z,30.46
2019-02-07T07:42:01.938Z,30.46
2019-02-07T07:43:02.315Z,30.87
2019-02-07T07:44:01.897Z,30.35
2019-02-07T07:45:01.875Z,31.17
2019-02-07T07:46:01.858Z,30.65
2019-02-07T07:47:01.829Z,30.65
2019-02-07T07:48:01.805Z,30.65
2019-02-07T07:49:01.784Z,30.85
2019-02-07T07:50:01.763Z,30.85
2019-02-07T07:51:01.741Z,30.45
2019-02-07T07:52:01.718Z,30.55
2019-02-07T07:53:01.698Z,30.85
2019-02-07T07:54:01.673Z,30.85
2019-02-07T07:55:01.654Z,30.43
2019-02-07T07:56:01.629Z,30.65
2019-02-07T07:57:01.606Z,30.35
2019-02-07T07:58:01.575Z,30.23
2019-02-07T07:59:01.550Z,30.23
2019-02-07T08:00:01.531Z,30.23
2019-02-07T08:01:01.501Z,30.25
2019-02-07T08:02:01.469Z,30.03
2019-02-07T08:03:01.446Z,30.74
2019-02-07T08:04:01.422Z,30.65
2019-02-07T08:05:01.395Z,30.84
2019-02-07T08:06:01.368Z,30.74
2019-02-07T08:07:01.338Z,30.84
2019-02-07T08:08:01.312Z,30.84
2019-02-07T08:09:01.287Z,30.63
2019-02-07T08:10:01.261Z,30.63
2019-02-07T08:11:01.234Z,30.74
2019-02-07T08:12:01.207Z,30.74
2019-02-07T08:13:01.187Z,31.04
2019-02-07T08:14:01.159Z,30.54
2019-02-07T08:15:01.137Z,30.54
2019-02-07T08:16:01.119Z,30.74
2019-02-07T08:17:01.090Z,30.72
2019-02-07T08:18:01.061Z,30.72
2019-02-07T08:19:01.035Z,30.52
2019-02-07T08:20:01.007Z,30.42
2019-02-07T08:21:00.978Z,30.42
2019-02-07T08:22:00.952Z,30.52
2019-02-07T08:23:00.918Z,30.52
2019-02-07T08:24:00.895Z,30.52
2019-02-07T08:25:00.867Z,30.52
2019-02-07T08:26:00.838Z,30.72
2019-02-07T08:27:00.727Z,30.92
2019-02-07T08:28:00.786Z,30.32
2019-02-07T08:29:00.754Z,31.73
2019-02-07T08:30:00.722Z,32.54
2019-02-07T08:31:00.694Z,32.74
2019-02-07T08:32:00.662Z,32.64
2019-02-07T08:33:00.633Z,31.53
2019-02-07T08:34:00.600Z,31.93
2019-02-07T08:35:00.567Z,31.63
2019-02-07T08:36:00.539Z,31.93
2019-02-07T08:37:00.503Z,32.32
2019-02-07T08:38:00.475Z,31.82
2019-02-07T08:39:00.344Z,32.12
2019-02-07T08:40:00.440Z,31.93
2019-02-07T08:41:00.379Z,31.92
2019-02-07T08:42:00.353Z,31.71
2019-02-07T08:43:00.324Z,31.71
2019-02-07T08:44:00.633Z,32.52
2019-02-07T08:45:00.375Z,32.44
2019-02-07T08:46:00.213Z,32.83
2019-02-07T08:47:00.184Z,32.42
2019-02-07T08:48:00.136Z,32.92
2019-02-07T08:49:01.101Z,32.92
2019-02-07T08:50:00.252Z,32.92
2019-02-07T08:51:00.031Z,32.02
2019-02-07T08:52:00.018Z,32.02
2019-02-07T08:52:59.957Z,32.72
2019-02-07T08:53:59.922Z,32.72
2019-02-07T08:54:59.892Z,32.83
2019-02-07T08:55:59.849Z,33.12
2019-02-07T08:56:59.820Z,33.12
2019-02-07T08:57:59.789Z,33.53
2019-02-07T08:58:59.768Z,33.23
2019-02-07T08:59:59.720Z,33.31
2019-02-07T09:00:59.696Z,33.43
2019-02-07T09:01:59.760Z,33.33
2019-02-07T09:02:59.625Z,33.71
2019-02-07T09:03:59.993Z,33.73
2019-02-07T09:04:59.557Z,33.71
2019-02-07T09:05:59.520Z,33.51
2019-02-07T09:06:59.490Z,33.21
2019-02-07T09:07:59.459Z,34.64
2019-02-07T09:08:59.435Z,34.92
2019-02-07T09:09:59.403Z,34.02
2019-02-07T09:10:59.371Z,34.64
2019-02-07T09:11:59.332Z,34.52
2019-02-07T09:12:59.294Z,34.52
2019-02-07T09:13:59.269Z,34.84
2019-02-07T09:14:59.230Z,34.52
2019-02-07T09:15:59.192Z,35.22
2019-02-07T09:16:59.154Z,35.02
2019-02-07T09:18:09.611Z,35.52
2019-02-07T09:19:00.187Z,36.33
2019-02-07T09:19:59.049Z,36.13
2019-02-07T09:20:59.010Z,35.12
2019-02-07T09:21:58.974Z,35.65
2019-02-07T09:22:58.934Z,35.22
2019-02-07T09:23:58.901Z,36.03
2019-02-07T09:24:58.863Z,35.52
2019-02-07T09:29:27.671Z,35.65
2019-02-07T09:30:27.569Z,36.05
2019-02-07T09:31:27.567Z,36.03
2019-02-07T09:32:27.563Z,36.03
2019-02-07T09:33:27.561Z,36.63
2019-02-07T09:34:27.546Z,37.13
2019-02-07T09:35:27.540Z,37.24
2019-02-07T09:36:27.547Z,38.75
2019-02-07T09:37:27.537Z,37.35
2019-02-07T09:38:27.534Z,38.25
2019-02-07T09:39:27.526Z,38.84
2019-02-07T09:40:27.517Z,38.75
2019-02-07T09:41:27.511Z,38.95
2019-02-07T09:42:27.505Z,39.37
2019-02-07T09:43:27.501Z,38.56
2019-02-07T09:44:27.498Z,39.47
2019-02-07T09:45:27.499Z,39.07
2019-02-07T09:46:27.495Z,39.27
2019-02-07T09:47:27.493Z,39.27
2019-02-07T09:48:27.497Z,39.67
2019-02-07T09:49:27.490Z,39.57
2019-02-07T09:50:27.483Z,39.67
2019-02-07T09:51:27.481Z,39.97
2019-02-07T09:52:27.479Z,39.47
2019-02-07T09:53:27.476Z,40.38
2019-02-07T09:54:27.474Z,39.27
2019-02-07T09:55:27.475Z,40.70
2019-02-07T09:56:27.475Z,40.58
2019-02-07T09:57:27.475Z,40.88
2019-02-07T09:58:27.477Z,41.18
2019-02-07T09:59:27.475Z,41.18
2019-02-07T10:00:27.479Z,40.60
2019-02-07T10:01:27.474Z,41.18
2019-02-07T10:02:27.467Z,40.80
2019-02-07T10:03:27.566Z,41.20
2019-02-07T10:04:27.568Z,41.30
2019-02-07T10:05:27.466Z,41.20
2019-02-07T10:06:27.458Z,40.70
2019-02-07T10:07:27.459Z,40.70
2019-02-07T10:08:27.459Z,41.00
2019-02-07T10:09:27.453Z,41.20
2019-02-07T10:10:27.454Z,41.00
2019-02-07T10:11:27.455Z,41.10
2019-02-07T10:12:27.453Z,40.30
2019-02-07T10:13:27.458Z,40.80
2019-02-07T10:14:27.459Z,41.30
2019-02-07T10:15:27.463Z,41.42
2019-02-07T10:16:27.456Z,40.72
2019-02-07T10:17:27.458Z,40.70
2019-02-07T10:18:33.207Z,40.52
2019-02-07T10:19:28.557Z,40.41
2019-02-07T10:20:27.458Z,40.30
2019-02-07T10:21:27.457Z,40.30
2019-02-07T10:22:27.464Z,40.60
2019-02-07T10:23:27.466Z,40.61
2019-02-07T10:24:27.463Z,41.02
2019-02-07T10:25:27.460Z,41.12
2019-02-07T10:26:27.480Z,41.22
2019-02-07T10:27:27.459Z,40.72
2019-02-07T10:28:27.454Z,40.72
2019-02-07T10:29:27.555Z,41.02
2019-02-07T10:30:27.554Z,40.72
2019-02-07T10:31:27.448Z,40.41
2019-02-07T10:32:27.447Z,40.03
2019-02-07T10:33:27.446Z,40.61
2019-02-07T10:34:27.450Z,41.04
2019-02-07T10:35:27.446Z,41.24
2019-02-07T10:36:27.445Z,41.02
2019-02-07T10:37:27.447Z,40.61
2019-02-07T10:38:27.444Z,41.02
2019-02-07T10:39:27.500Z,41.04
2019-02-07T10:40:27.441Z,41.02
2019-02-07T10:41:27.443Z,40.63
2019-02-07T10:42:27.439Z,40.83
2019-02-07T10:43:27.437Z,41.24
2019-02-07T10:44:27.441Z,41.74
2019-02-07T10:45:27.435Z,41.24
2019-02-07T10:46:27.439Z,40.74
2019-02-07T10:47:30.053Z,40.74
2019-02-07T10:48:27.438Z,40.63
2019-02-07T10:49:27.441Z,41.14
2019-02-07T10:50:27.444Z,41.54
2019-02-07T10:51:27.451Z,41.14
2019-02-07T10:52:27.456Z,41.04
2019-02-07T10:53:27.455Z,41.04
2019-02-07T10:54:27.456Z,40.83
2019-02-07T10:55:27.466Z,41.94
2019-02-07T10:56:27.467Z,41.24
2019-02-07T10:57:27.466Z,41.14
2019-02-07T10:58:27.466Z,41.14
2019-02-07T10:59:27.474Z,41.85
2019-02-07T11:00:27.473Z,41.85
2019-02-07T11:01:27.477Z,41.16
2019-02-07T11:02:27.476Z,41.14
2019-02-07T11:03:27.479Z,41.14
2019-02-07T11:04:27.478Z,40.86
2019-02-07T11:05:27.484Z,41.87
2019-02-07T11:06:27.488Z,42.05
2019-02-07T11:07:27.483Z,41.34
2019-02-07T11:08:27.484Z,41.06
2019-02-07T11:09:27.483Z,42.17
2019-02-07T11:10:27.480Z,41.76
2019-02-07T11:11:27.485Z,41.76
2019-02-07T11:12:27.479Z,40.86
2019-02-07T11:13:27.477Z,40.86
2019-02-07T11:14:27.476Z,41.06
2019-02-07T11:15:27.479Z,40.86
2019-02-07T11:16:27.474Z,42.17
2019-02-07T11:17:27.473Z,40.86
2019-02-07T11:18:27.575Z,41.66
2019-02-07T11:19:27.478Z,41.06
2019-02-07T11:20:27.483Z,41.76
2019-02-07T11:21:27.479Z,41.16
2019-02-07T11:22:27.481Z,41.36
2019-02-07T11:23:27.477Z,41.87
2019-02-07T11:24:27.477Z,41.88
2019-02-07T11:25:27.476Z,41.97
2019-02-07T11:26:27.475Z,41.08
2019-02-07T11:27:27.477Z,41.36
2019-02-07T11:28:27.482Z,41.18
2019-02-07T11:29:27.585Z,41.38
2019-02-07T11:30:27.595Z,41.18
2019-02-07T11:31:27.495Z,41.28
2019-02-07T11:32:27.504Z,41.38
2019-02-07T11:33:27.509Z,40.67
2019-02-07T11:34:27.517Z,41.18
2019-02-07T11:35:27.526Z,41.08
2019-02-07T11:36:27.529Z,41.88
2019-02-07T11:37:27.536Z,41.18
2019-02-07T11:38:27.546Z,41.26
2019-02-07T11:39:29.641Z,41.18
2019-02-07T11:40:27.558Z,41.08
2019-02-07T11:41:27.566Z,41.18
2019-02-07T11:42:27.573Z,40.77
2019-02-07T11:43:27.574Z,41.08
2019-02-07T11:44:27.570Z,41.08
2019-02-07T11:45:27.571Z,40.88
2019-02-07T11:46:27.578Z,40.67
2019-02-07T11:47:27.574Z,41.08
2019-02-07T11:48:27.675Z,40.57
2019-02-07T11:49:27.585Z,41.08
2019-02-07T11:50:27.783Z,40.67
2019-02-07T11:51:27.577Z,41.08
2019-02-07T11:52:27.577Z,40.69
2019-02-07T11:53:27.573Z,41.20
2019-02-07T11:54:27.577Z,41.08
2019-02-07T11:55:27.580Z,41.10
2019-02-07T11:56:27.576Z,40.69
2019-02-07T11:57:27.582Z,40.79
2019-02-07T11:58:27.642Z,41.40
2019-02-07T11:59:27.594Z,41.00
2019-02-07T12:00:27.595Z,41.20
2019-02-07T12:01:27.701Z,41.20
2019-02-07T12:02:27.601Z,41.00
2019-02-07T12:03:27.599Z,41.20
2019-02-07T12:04:27.700Z,41.10
2019-02-07T12:05:27.605Z,41.10
2019-02-07T12:06:27.611Z,41.20
2019-02-07T12:07:27.619Z,41.40
2019-02-07T12:08:27.622Z,41.20
2019-02-07T12:09:27.624Z,41.30
2019-02-07T12:10:27.627Z,41.40
2019-02-07T12:11:27.635Z,41.30
2019-02-07T12:12:27.637Z,41.20
2019-02-07T12:13:27.644Z,41.30
2019-02-07T12:14:27.645Z,41.40
2019-02-07T12:15:27.650Z,41.40
2019-02-07T12:16:27.655Z,41.10
2019-02-07T12:17:27.657Z,40.79
2019-02-07T12:18:27.668Z,41.00
2019-02-07T12:19:27.675Z,41.20
2019-02-07T12:20:27.678Z,41.30
2019-02-07T12:21:27.683Z,41.00
2019-02-07T12:22:27.707Z,41.40
2019-02-07T12:23:27.696Z,41.42
2019-02-07T12:24:27.777Z,41.22
2019-02-07T12:25:27.708Z,41.32
2019-02-07T12:26:27.719Z,41.11
2019-02-07T12:27:27.724Z,41.10
2019-02-07T12:28:27.731Z,41.02
2019-02-07T12:29:27.840Z,41.32
2019-02-07T12:30:27.850Z,41.10
2019-02-07T12:31:27.753Z,41.32
2019-02-07T12:32:27.766Z,41.11
2019-02-07T12:33:27.770Z,41.10
2019-02-07T12:34:27.780Z,41.32
2019-02-07T12:35:27.785Z,41.11
2019-02-07T12:36:27.789Z,41.42
2019-02-07T12:37:27.793Z,40.61
2019-02-07T12:38:27.797Z,40.51
2019-02-07T12:39:27.800Z,40.71
2019-02-07T12:40:27.809Z,41.32
2019-02-07T12:41:27.818Z,41.22
2019-02-07T12:42:27.829Z,41.32
2019-02-07T12:43:27.844Z,41.22
2019-02-07T12:44:27.861Z,41.22
2019-02-07T12:45:27.869Z,40.61
2019-02-07T12:46:27.985Z,40.82
2019-02-07T12:47:27.904Z,40.91
2019-02-07T12:48:28.198Z,41.11
2019-02-07T12:49:29.513Z,40.82
2019-02-07T12:50:27.951Z,41.42
2019-02-07T12:51:27.962Z,40.41
2019-02-07T12:52:27.980Z,41.32
2019-02-07T12:53:27.994Z,41.22
2019-02-07T12:54:28.005Z,41.42
2019-02-07T12:55:28.020Z,40.41
2019-02-07T12:56:28.034Z,40.91
2019-02-07T12:57:28.053Z,40.71
2019-02-07T12:58:28.066Z,40.82
2019-02-07T12:59:28.083Z,40.61
2019-02-07T13:00:28.091Z,40.91
2019-02-07T13:01:28.110Z,40.53
2019-02-07T13:02:28.132Z,40.83
2019-02-07T13:03:28.495Z,40.83
2019-02-07T13:32:43.984Z,39.64
2019-02-07T13:33:43.722Z,36.52
2019-02-07T13:34:43.727Z,35.21
2019-02-07T13:35:43.759Z,35.91
2019-02-07T13:36:43.694Z,37.02
2019-02-07T13:37:43.795Z,38.51
2019-02-07T13:38:43.672Z,46.08
2019-02-07T13:39:43.683Z,38.72
2019-02-07T13:40:43.650Z,34.08
2019-02-07T13:41:43.652Z,38.00
2019-02-07T13:42:43.630Z,34.87
2019-02-07T13:43:43.622Z,27.71
2019-02-07T13:44:43.607Z,37.28
2019-02-07T13:45:43.662Z,37.07
2019-02-07T13:46:43.591Z,36.27
2019-02-07T13:47:43.583Z,38.86
2019-02-07T13:48:44.026Z,36.19
2019-02-07T13:49:51.642Z,35.19
2019-02-07T13:50:44.650Z,34.77
2019-02-07T13:51:43.533Z,35.58
2019-02-07T13:52:43.541Z,33.56
2019-02-07T13:53:43.511Z,33.76
2019-02-07T13:54:43.500Z,33.16
2019-02-07T13:55:43.488Z,32.86
2019-02-07T13:56:43.479Z,33.96
2019-02-07T13:57:43.471Z,33.16
2019-02-07T13:58:43.457Z,32.75
2019-02-07T13:59:45.453Z,34.06
2019-02-07T14:00:43.441Z,32.95
2019-02-07T14:01:43.426Z,34.16
2019-02-07T14:02:43.417Z,32.55
2019-02-07T14:03:43.415Z,33.49
2019-02-07T14:04:43.399Z,31.30
2019-02-07T14:05:43.387Z,26.33
2019-02-07T14:06:43.372Z,27.83
2019-02-07T14:07:43.363Z,29.96
2019-02-07T14:08:43.357Z,33.34
2019-02-07T14:09:43.343Z,35.79
2019-02-07T14:10:43.337Z,38.95
2019-02-07T14:11:43.322Z,39.85
2019-02-07T14:12:43.316Z,53.83
2019-02-07T14:13:43.300Z,53.53
2019-02-07T14:14:43.292Z,51.15
2019-02-07T14:15:43.276Z,48.60
2019-02-07T14:16:43.267Z,47.84
2019-02-07T14:17:43.256Z,45.42
2019-02-07T14:18:43.252Z,44.28
2019-02-07T14:19:43.231Z,44.14
2019-02-07T14:20:43.221Z,43.60
2019-02-07T14:21:43.210Z,43.48
2019-02-07T14:22:43.206Z,42.57
2019-02-07T14:23:43.188Z,42.77
2019-02-07T14:24:43.182Z,42.85
2019-02-07T14:25:43.181Z,42.63
2019-02-07T14:26:43.163Z,41.82
2019-02-07T14:27:43.151Z,41.00
2019-02-07T14:28:43.139Z,41.51
2019-02-07T14:29:43.123Z,41.21
2019-02-07T14:30:43.117Z,41.51
2019-02-07T14:31:43.101Z,42.22
2019-02-07T14:32:43.090Z,41.41
2019-02-07T14:33:43.486Z,41.21
2019-02-07T14:34:43.075Z,41.51
2019-02-07T14:35:43.062Z,41.30
2019-02-07T14:36:45.544Z,41.43
2019-02-07T14:37:43.038Z,41.43
2019-02-07T14:38:43.028Z,42.24
2019-02-07T14:39:43.017Z,42.24
2019-02-07T14:40:43.004Z,41.53
2019-02-07T14:41:42.993Z,41.43
2019-02-07T14:42:42.983Z,42.55
2019-02-07T14:43:42.973Z,41.94
2019-02-07T14:44:42.961Z,42.14
2019-02-07T14:45:42.954Z,42.34
2019-02-07T14:46:42.943Z,42.57
2019-02-07T14:47:42.931Z,41.24
2019-02-07T14:48:45.194Z,42.16
2019-02-07T14:49:42.910Z,42.57
2019-02-07T14:50:42.896Z,42.67
2019-02-07T14:51:42.885Z,42.18
2019-02-07T14:52:42.875Z,42.79
2019-02-07T14:53:42.863Z,42.38
2019-02-07T14:54:42.864Z,42.81
2019-02-07T14:55:42.847Z,43.73
2019-02-07T14:56:42.843Z,42.60
2019-02-07T14:57:42.823Z,42.89
2019-02-07T14:58:42.812Z,42.99
2019-02-07T14:59:42.805Z,43.01
2019-02-07T15:00:42.790Z,42.20
2019-02-07T15:01:42.778Z,42.40
2019-02-07T15:02:42.868Z,42.91
2019-02-07T15:03:42.761Z,42.28
2019-02-07T15:04:42.749Z,42.99
2019-02-07T15:05:42.737Z,42.98
2019-02-07T15:06:42.728Z,42.37
2019-02-07T15:07:42.714Z,42.57
2019-02-07T15:08:42.705Z,42.37
2019-02-07T15:09:42.695Z,42.37
2019-02-07T15:10:42.683Z,42.26
2019-02-07T15:11:42.772Z,42.26
2019-02-07T15:12:42.673Z,42.16
2019-02-07T15:13:42.656Z,41.55
2019-02-07T15:14:42.639Z,41.35
2019-02-07T15:15:42.632Z,41.75
2019-02-07T15:16:42.624Z,41.24
2019-02-07T15:17:42.605Z,41.55
2019-02-07T15:18:42.606Z,41.44
2019-02-07T15:19:42.611Z,41.85
2019-02-07T15:20:42.627Z,42.48
2019-02-07T15:21:42.569Z,42.18
2019-02-07T15:22:42.557Z,41.36
2019-02-07T15:23:42.543Z,41.46
2019-02-07T15:24:42.538Z,42.08
2019-02-07T15:25:42.525Z,41.35
2019-02-07T15:26:42.515Z,41.97
2019-02-07T15:27:42.587Z,42.18
2019-02-07T15:28:42.490Z,41.44
2019-02-07T15:29:42.479Z,41.75
2019-02-07T15:30:42.466Z,41.44
2019-02-07T15:31:42.457Z,41.65
2019-02-07T15:32:42.450Z,41.35
2019-02-07T15:33:42.439Z,41.44
2019-02-07T15:34:42.673Z,41.55